Central Virginia Flyers


Central Virginia Flyers is a 10 member flying club based in Richmond, VA at Hanover County Airport (KOFP). We own N787AT, a 1977 Cessna 172 with 180hp conversion. If you are interested in membership, please contact Brenton at brenton@cvflyers.org.


Aviation Digital Data Service (ADDS)

Output produced by METARs form (0123 UTC 27 November 2014)
found at http://aviationweather.gov/adds/metars/
 
KOFP 270054Z AUTO VRB03KT 10SM OVC080 03/01 A3000 RMK AO2 SLP158 T00280011
KRIC 270117Z 30007KT 10SM SCT012 BKN018 BKN060 04/02 A3000 RMK AO2
KRIC 262331Z 2700/2724 30009KT P6SM OVC015 
     FM270500 28003KT P6SM SCT020 BKN030 
     FM271400 01003KT 4SM -RA BR OVC015 
     FM272000 33007KT P6SM BKN020